createdAt,value
2023-02-11T00:01:20.683Z,28.67
2023-02-11T00:04:07.171Z,25.03
2023-02-11T00:06:52.501Z,28.10
2023-02-11T00:09:38.267Z,25.27
2023-02-11T00:12:23.979Z,26.07
2023-02-11T00:15:10.101Z,30.67
2023-02-11T00:17:57.290Z,28.80
2023-02-11T00:20:43.362Z,30.83
2023-02-11T00:23:28.900Z,30.67
2023-02-11T00:26:23.015Z,29.57
2023-02-11T00:29:08.132Z,24.92
2023-02-11T00:31:53.642Z,24.97
2023-02-11T00:34:39.287Z,25.80
2023-02-11T00:37:24.824Z,25.03
2023-02-11T00:40:11.097Z,25.43
2023-02-11T00:42:56.424Z,23.83
2023-02-11T00:45:41.766Z,26.53
2023-02-11T00:48:27.398Z,25.70
2023-02-11T00:51:13.404Z,30.17
2023-02-11T00:53:58.960Z,26.17
2023-02-11T00:56:44.325Z,27.60
2023-02-11T00:59:29.659Z,25.60
2023-02-11T01:02:15.250Z,24.93
2023-02-11T01:05:01.418Z,29.53
2023-02-11T01:07:47.183Z,23.43
2023-02-11T01:10:32.628Z,26.40
2023-02-11T01:13:17.841Z,27.03
2023-02-11T01:16:06.017Z,24.53
2023-02-11T01:18:51.540Z,31.73
2023-02-11T01:21:37.105Z,24.97
2023-02-11T01:24:22.604Z,26.63
2023-02-11T01:27:07.932Z,26.47
2023-02-11T01:29:53.223Z,27.47
2023-02-11T01:32:38.948Z,27.27
2023-02-11T01:35:24.138Z,25.97
2023-02-11T01:38:16.958Z,25.93
2023-02-11T01:41:09.236Z,25.47
2023-02-11T01:43:54.487Z,28.00
2023-02-11T01:46:40.058Z,27.47
2023-02-11T01:49:30.280Z,26.33
2023-02-11T01:52:15.774Z,26.17
2023-02-11T01:55:24.554Z,26.63
2023-02-11T01:58:10.011Z,27.47
2023-02-11T02:00:56.104Z,21.83
2023-02-11T02:03:43.939Z,29.80
2023-02-11T02:06:32.183Z,23.00
2023-02-11T02:09:23.799Z,26.90
2023-02-11T02:12:09.212Z,23.43
2023-02-11T02:15:31.964Z,29.17
2023-02-11T02:18:42.590Z,30.20
2023-02-11T02:22:00.285Z,26.27
2023-02-11T02:24:56.670Z,27.37
2023-02-11T02:28:23.750Z,25.53
2023-02-11T02:31:12.312Z,26.73
2023-02-11T02:34:06.642Z,27.70
2023-02-11T02:36:57.583Z,25.08
2023-02-11T02:39:45.799Z,25.03
2023-02-11T02:42:32.194Z,24.37
2023-02-11T02:45:18.556Z,23.90
2023-02-11T02:48:04.067Z,27.17
2023-02-11T02:50:53.210Z,26.93
2023-02-11T02:54:15.972Z,28.17
2023-02-11T02:57:10.754Z,20.77
2023-02-11T03:03:15.248Z,26.83
2023-02-11T03:06:30.288Z,26.50
2023-02-11T03:09:54.573Z,26.67
2023-02-11T03:12:42.169Z,25.57
2023-02-11T03:15:32.405Z,21.87
2023-02-11T03:18:22.072Z,29.13
2023-02-11T03:21:10.219Z,27.73
2023-02-11T03:24:00.936Z,25.57
2023-02-11T03:27:26.229Z,26.17
2023-02-11T03:30:19.153Z,26.52
2023-02-11T03:33:14.453Z,24.63
2023-02-11T03:36:19.062Z,27.77
2023-02-11T03:39:05.830Z,26.17
2023-02-11T03:41:52.947Z,26.37
2023-02-11T03:44:45.134Z,25.87
2023-02-11T03:47:35.200Z,26.80
2023-02-11T03:50:22.162Z,26.63
2023-02-11T03:53:08.994Z,26.47
2023-02-11T03:55:56.665Z,27.80
2023-02-11T03:58:44.056Z,29.43
2023-02-11T04:01:29.574Z,27.47
2023-02-11T04:04:15.300Z,24.67
2023-02-11T04:07:00.995Z,27.13
2023-02-11T04:09:46.320Z,25.67
2023-02-11T04:12:31.751Z,26.50
2023-02-11T04:15:17.171Z,23.23
2023-02-11T04:18:03.656Z,29.90
2023-02-11T04:20:50.315Z,23.80
2023-02-11T04:23:36.165Z,23.47
2023-02-11T04:26:21.587Z,28.77
2023-02-11T04:29:06.908Z,26.07
2023-02-11T04:31:52.292Z,26.60
2023-02-11T04:34:37.817Z,23.43
2023-02-11T04:37:23.109Z,22.77
2023-02-11T04:40:09.034Z,27.27
2023-02-11T04:42:54.325Z,26.53
2023-02-11T04:45:40.127Z,24.67
2023-02-11T04:48:26.038Z,25.67
2023-02-11T04:51:11.891Z,23.63
2023-02-11T04:53:57.555Z,24.63
2023-02-11T04:56:43.165Z,24.23
2023-02-11T04:59:28.674Z,24.07
2023-02-11T05:02:13.965Z,27.53
2023-02-11T05:04:59.408Z,23.63
2023-02-11T05:07:44.690Z,21.40
2023-02-11T05:10:30.056Z,23.47
2023-02-11T05:13:15.753Z,22.60
2023-02-11T05:16:01.395Z,26.23
2023-02-11T05:18:47.008Z,23.87
2023-02-11T05:21:32.416Z,21.30
2023-02-11T05:24:17.968Z,21.43
2023-02-11T05:27:03.875Z,24.93
2023-02-11T05:29:49.542Z,25.33
2023-02-11T05:32:34.876Z,23.33
2023-02-11T05:35:20.310Z,20.83
2023-02-11T05:38:05.535Z,22.53
2023-02-11T05:40:51.074Z,23.63
2023-02-11T05:43:36.817Z,22.67
2023-02-11T05:46:22.189Z,27.37
2023-02-11T05:49:07.948Z,21.97
2023-02-11T05:51:53.206Z,21.40
2023-02-11T05:54:38.838Z,21.33
2023-02-11T05:57:24.202Z,19.97
2023-02-11T06:00:10.159Z,21.10
2023-02-11T06:02:55.594Z,21.80
2023-02-11T06:05:43.586Z,24.00
2023-02-11T06:08:28.829Z,18.63
2023-02-11T06:11:18.189Z,22.47
2023-02-11T06:14:04.099Z,23.87
2023-02-11T06:16:49.456Z,23.17
2023-02-11T06:19:35.202Z,25.40
2023-02-11T06:22:20.794Z,21.77
2023-02-11T06:25:06.318Z,23.03
2023-02-11T06:27:51.590Z,24.33
2023-02-11T06:30:40.815Z,24.17
2023-02-11T06:33:26.401Z,23.37
2023-02-11T06:36:15.599Z,24.77
2023-02-11T06:39:00.826Z,21.07
2023-02-11T06:41:46.334Z,24.87
2023-02-11T06:44:32.198Z,21.27
2023-02-11T06:47:17.923Z,23.00
2023-02-11T06:50:03.670Z,20.87
2023-02-11T06:52:48.958Z,23.33
2023-02-11T06:55:35.572Z,28.73
2023-02-11T06:58:20.928Z,21.07
2023-02-11T07:01:09.370Z,20.57
2023-02-11T07:03:54.822Z,24.10
2023-02-11T07:06:40.880Z,23.20
2023-02-11T07:09:26.131Z,26.67
2023-02-11T07:12:11.983Z,25.23
2023-02-11T07:14:57.594Z,20.40
2023-02-11T07:17:42.967Z,24.67
2023-02-11T07:20:28.300Z,26.83
2023-02-11T07:23:13.769Z,24.63
2023-02-11T07:26:06.071Z,24.10
2023-02-11T07:28:52.608Z,26.77
2023-02-11T07:31:37.952Z,24.30
2023-02-11T07:34:23.619Z,23.80
2023-02-11T07:37:09.310Z,43.97
2023-02-11T07:39:54.537Z,39.70
2023-02-11T07:42:41.647Z,41.17
2023-02-11T07:45:26.901Z,33.30
2023-02-11T07:48:12.488Z,38.17
2023-02-11T07:51:16.503Z,41.73
2023-02-11T07:54:01.775Z,29.90
2023-02-11T07:56:47.305Z,30.27
2023-02-11T07:59:32.947Z,28.33
2023-02-11T08:02:18.822Z,25.10
2023-02-11T08:05:04.121Z,29.60
2023-02-11T08:07:54.957Z,29.00
2023-02-11T08:10:40.220Z,26.73
2023-02-11T08:13:27.082Z,24.37
2023-02-11T08:16:21.281Z,27.73
2023-02-11T08:21:57.567Z,22.93
2023-02-11T08:24:43.005Z,27.57
2023-02-11T08:27:29.354Z,25.67
2023-02-11T08:30:14.867Z,24.93
2023-02-11T08:33:00.454Z,24.83
2023-02-11T08:35:46.217Z,22.53
2023-02-11T08:38:31.592Z,26.53
2023-02-11T08:41:17.470Z,24.07
2023-02-11T08:44:02.957Z,26.10
2023-02-11T08:46:49.009Z,28.30
2023-02-11T08:49:34.627Z,27.43
2023-02-11T08:52:20.008Z,24.07
2023-02-11T08:55:05.676Z,23.43
2023-02-11T08:57:51.478Z,23.80
2023-02-11T09:00:37.014Z,23.07
2023-02-11T09:03:22.771Z,23.33
2023-02-11T09:06:10.063Z,22.87
2023-02-11T09:08:57.718Z,18.47
2023-02-11T09:11:44.849Z,25.37
2023-02-11T09:14:30.335Z,19.97
2023-02-11T09:17:15.856Z,24.60
2023-02-11T09:20:01.610Z,21.10
2023-02-11T09:22:46.868Z,26.10
2023-02-11T09:25:32.460Z,21.03
2023-02-11T09:28:18.026Z,20.50
2023-02-11T09:31:16.989Z,19.93
2023-02-11T09:34:05.826Z,22.80
2023-02-11T09:36:51.110Z,14.37
2023-02-11T09:39:36.492Z,15.53
2023-02-11T09:42:53.036Z,16.93
2023-02-11T09:45:38.758Z,15.30
2023-02-11T09:48:24.305Z,15.90
2023-02-11T09:51:34.087Z,13.67
2023-02-11T09:54:36.369Z,15.23
2023-02-11T09:57:28.521Z,14.70
2023-02-11T10:00:25.131Z,14.60
2023-02-11T10:03:22.725Z,13.23
2023-02-11T10:06:31.499Z,12.43
2023-02-11T10:09:28.991Z,15.07
2023-02-11T10:12:39.495Z,15.73
2023-02-11T10:15:32.117Z,16.80
2023-02-11T10:18:42.216Z,16.33
2023-02-11T10:21:53.846Z,16.50
2023-02-11T10:27:24.414Z,15.03
2023-02-11T10:30:29.546Z,14.33
2023-02-11T10:36:29.883Z,14.37
2023-02-11T10:39:18.800Z,14.13
2023-02-11T10:42:09.585Z,15.17
2023-02-11T10:45:00.789Z,17.40
2023-02-11T10:47:46.335Z,17.40
2023-02-11T10:50:34.952Z,16.80
2023-02-11T10:53:21.650Z,20.77
2023-02-11T10:56:11.246Z,21.50
2023-02-11T10:59:28.164Z,16.73
2023-02-11T11:02:23.403Z,16.17
2023-02-11T11:05:18.554Z,14.03
2023-02-11T11:08:09.032Z,15.77
2023-02-11T11:11:07.385Z,12.30
2023-02-11T11:13:52.759Z,15.33
2023-02-11T11:16:38.252Z,12.37
2023-02-11T11:19:25.589Z,15.37
2023-02-11T11:22:21.686Z,15.20
2023-02-11T11:25:25.784Z,11.47
2023-02-11T11:28:23.697Z,11.27
2023-02-11T11:31:15.610Z,12.47
2023-02-11T11:34:05.833Z,12.10
2023-02-11T11:36:51.803Z,11.03
2023-02-11T11:39:37.497Z,11.90
2023-02-11T11:42:34.504Z,12.03
2023-02-11T11:45:26.486Z,14.03
2023-02-11T11:48:20.778Z,13.00
2023-02-11T11:51:11.146Z,15.05
2023-02-11T11:54:01.434Z,14.43
2023-02-11T11:56:56.594Z,14.70
2023-02-11T11:59:42.931Z,14.83
2023-02-11T12:03:04.431Z,14.10
2023-02-11T12:06:26.689Z,15.73
2023-02-11T12:09:18.113Z,14.20
2023-02-11T12:12:12.109Z,15.10
2023-02-11T12:15:19.789Z,15.90
2023-02-11T12:18:38.098Z,19.47
2023-02-11T12:21:52.137Z,17.80
2023-02-11T12:25:02.749Z,18.27
2023-02-11T12:28:00.490Z,17.20
2023-02-11T12:30:52.656Z,16.50
2023-02-11T12:33:59.373Z,17.00
2023-02-11T12:37:13.913Z,17.65
2023-02-11T12:40:41.777Z,17.70
2023-02-11T12:43:36.047Z,21.15
2023-02-11T12:46:32.478Z,17.92
2023-02-11T12:49:24.343Z,16.45
2023-02-11T12:52:28.142Z,17.35
2023-02-11T12:55:24.384Z,15.48
2023-02-11T12:58:16.377Z,16.20
2023-02-11T13:01:06.732Z,15.57
2023-02-11T13:03:58.343Z,15.75
2023-02-11T13:06:52.104Z,15.85
2023-02-11T13:09:55.390Z,17.10
2023-02-11T13:13:04.169Z,15.63
2023-02-11T13:16:06.713Z,14.10
2023-02-11T13:19:13.533Z,13.18
2023-02-11T13:22:26.935Z,15.15
2023-02-11T13:25:20.918Z,14.15
2023-02-11T13:28:34.668Z,14.32
2023-02-11T13:31:20.661Z,12.40
2023-02-11T13:34:43.330Z,17.73
2023-02-11T13:37:39.781Z,16.83
2023-02-11T13:40:28.605Z,18.13
2023-02-11T13:43:28.980Z,19.30
2023-02-11T13:46:15.662Z,15.98
2023-02-11T13:49:01.115Z,17.95
2023-02-11T13:51:47.716Z,16.92
2023-02-11T13:54:37.787Z,19.38
2023-02-11T13:57:29.377Z,17.73
2023-02-11T14:00:33.473Z,18.88
2023-02-11T14:03:57.569Z,19.77
2023-02-11T14:07:44.285Z,19.25
2023-02-11T14:10:41.941Z,22.35
2023-02-11T14:13:27.250Z,21.02
2023-02-11T14:16:31.591Z,19.10
2023-02-11T14:19:37.224Z,16.10
2023-02-11T14:22:29.073Z,25.23
2023-02-11T14:25:26.259Z,18.98
2023-02-11T14:28:24.880Z,21.30
2023-02-11T14:31:17.109Z,21.05
2023-02-11T14:34:18.715Z,18.75
2023-02-11T14:37:40.745Z,18.38
2023-02-11T14:40:47.348Z,17.60
2023-02-11T14:43:45.346Z,18.52
2023-02-11T14:46:32.920Z,20.85
2023-02-11T14:49:33.291Z,18.20
2023-02-11T14:52:29.806Z,19.45
2023-02-11T14:55:34.674Z,22.75
2023-02-11T14:58:30.865Z,20.10
2023-02-11T15:01:46.151Z,20.58
2023-02-11T15:04:33.856Z,23.50
2023-02-11T15:07:19.403Z,21.02
2023-02-11T15:10:05.114Z,25.00
2023-02-11T15:12:50.773Z,22.40
2023-02-11T15:15:40.841Z,27.20
2023-02-11T15:18:41.208Z,28.27
2023-02-11T15:21:30.050Z,24.15
2023-02-11T15:24:28.370Z,22.55
2023-02-11T15:27:16.314Z,25.85
2023-02-11T15:30:01.886Z,25.90
2023-02-11T15:32:48.036Z,23.70
2023-02-11T15:35:37.223Z,24.60
2023-02-11T15:38:22.515Z,23.25
2023-02-11T15:41:08.680Z,23.75
2023-02-11T15:43:55.609Z,22.58
2023-02-11T15:46:42.046Z,23.05
2023-02-11T15:49:27.649Z,22.00
2023-02-11T15:52:14.729Z,20.15
2023-02-11T15:55:02.402Z,20.88
2023-02-11T15:57:54.777Z,19.30
2023-02-11T16:00:48.386Z,21.88
2023-02-11T16:03:34.610Z,20.85
2023-02-11T16:06:35.724Z,18.30
2023-02-11T16:09:35.968Z,22.23
2023-02-11T16:12:29.389Z,19.92
2023-02-11T16:15:34.642Z,22.27
2023-02-11T16:18:37.295Z,21.88
2023-02-11T16:21:40.080Z,19.95
2023-02-11T16:24:29.680Z,23.10
2023-02-11T16:27:24.294Z,21.98
2023-02-11T16:30:38.726Z,20.05
2023-02-11T16:33:24.765Z,21.35
2023-02-11T16:36:13.398Z,24.35
2023-02-11T16:38:58.943Z,24.02
2023-02-11T16:41:44.553Z,32.37
2023-02-11T16:44:30.318Z,26.98
2023-02-11T16:47:23.109Z,26.40
2023-02-11T16:50:19.079Z,22.40
2023-02-11T16:53:06.456Z,23.35
2023-02-11T16:55:52.865Z,24.23
2023-02-11T16:58:38.489Z,23.97
2023-02-11T17:01:24.107Z,27.75
2023-02-11T17:04:31.551Z,24.27
2023-02-11T17:07:17.236Z,26.70
2023-02-11T17:10:02.723Z,20.93
2023-02-11T17:12:49.080Z,24.80
2023-02-11T17:15:36.117Z,28.27
2023-02-11T17:18:21.738Z,23.87
2023-02-11T17:21:07.902Z,24.80
2023-02-11T17:23:53.546Z,24.90
2023-02-11T17:26:39.311Z,27.30
2023-02-11T17:29:25.949Z,22.20
2023-02-11T17:32:11.916Z,23.57
2023-02-11T17:34:57.154Z,30.47
2023-02-11T17:37:43.387Z,29.63
2023-02-11T17:40:28.680Z,25.83
2023-02-11T17:43:15.994Z,26.83
2023-02-11T17:46:05.279Z,27.87
2023-02-11T17:48:52.870Z,21.93
2023-02-11T17:51:40.100Z,24.80
2023-02-11T17:54:26.106Z,25.57
2023-02-11T17:57:13.248Z,23.83
2023-02-11T17:59:58.526Z,28.30
2023-02-11T18:02:44.403Z,25.87
2023-02-11T18:05:37.705Z,27.07
2023-02-11T18:08:23.014Z,26.97
2023-02-11T18:11:13.211Z,29.33
2023-02-11T18:14:00.146Z,28.63
2023-02-11T18:16:46.459Z,27.70
2023-02-11T18:19:33.208Z,27.00
2023-02-11T18:22:18.622Z,24.17
2023-02-11T18:25:05.118Z,26.10
2023-02-11T18:27:50.248Z,28.47
2023-02-11T18:30:35.884Z,24.27
2023-02-11T18:33:21.182Z,25.03
2023-02-11T18:36:16.537Z,27.57
2023-02-11T18:39:02.520Z,29.93
2023-02-11T18:41:48.167Z,29.37
2023-02-11T18:44:33.554Z,40.60
2023-02-11T18:47:18.996Z,36.30
2023-02-11T18:50:09.513Z,37.43
2023-02-11T18:52:55.350Z,30.70
2023-02-11T18:55:44.960Z,36.03
2023-02-11T18:58:30.255Z,32.97
2023-02-11T19:01:21.494Z,32.40
2023-02-11T19:04:07.279Z,30.60
2023-02-11T19:06:52.544Z,34.27
2023-02-11T19:09:38.256Z,32.93
2023-02-11T19:12:23.566Z,36.27
2023-02-11T19:15:09.367Z,34.30
2023-02-11T19:17:55.027Z,36.43
2023-02-11T19:20:44.431Z,35.53
2023-02-11T19:23:30.038Z,43.63
2023-02-11T19:26:15.582Z,35.20
2023-02-11T19:29:01.238Z,38.33
2023-02-11T19:31:47.065Z,37.23
2023-02-11T19:34:33.247Z,35.60
2023-02-11T19:37:18.469Z,34.43
2023-02-11T19:40:04.385Z,31.70
2023-02-11T19:42:49.837Z,33.00
2023-02-11T19:45:37.906Z,31.27
2023-02-11T19:48:25.842Z,34.53
2023-02-11T19:51:13.312Z,35.17
2023-02-11T19:54:00.458Z,36.30
2023-02-11T19:56:47.749Z,35.23
2023-02-11T19:59:33.381Z,33.37
2023-02-11T20:02:19.086Z,35.43
2023-02-11T20:05:04.970Z,36.90
2023-02-11T20:07:50.569Z,33.37
2023-02-11T20:10:35.859Z,35.73
2023-02-11T20:13:21.490Z,35.07
2023-02-11T20:16:18.744Z,34.90
2023-02-11T20:19:04.505Z,37.33
2023-02-11T20:21:53.260Z,47.20
2023-02-11T20:24:38.692Z,45.13
2023-02-11T20:27:24.214Z,38.00
2023-02-11T20:30:10.387Z,39.77
2023-02-11T20:32:56.183Z,37.03
2023-02-11T20:35:41.542Z,39.33
2023-02-11T20:38:27.710Z,36.63
2023-02-11T20:41:22.240Z,40.87
2023-02-11T20:46:54.493Z,37.20
2023-02-11T20:49:40.186Z,37.30
2023-02-11T20:52:25.928Z,32.70
2023-02-11T20:55:11.574Z,35.43
2023-02-11T20:57:57.508Z,33.43
2023-02-11T21:00:42.909Z,38.10
2023-02-11T21:03:28.505Z,33.60
2023-02-11T21:06:15.134Z,33.77
2023-02-11T21:09:00.766Z,36.80
2023-02-11T21:11:47.406Z,31.77
2023-02-11T21:14:34.083Z,29.87
2023-02-11T21:17:19.805Z,31.60
2023-02-11T21:20:06.021Z,36.43
2023-02-11T21:22:51.410Z,29.27
2023-02-11T21:25:36.731Z,34.77
2023-02-11T21:28:26.193Z,32.23
2023-02-11T21:31:23.166Z,33.90
2023-02-11T21:34:09.881Z,30.20
2023-02-11T21:36:55.421Z,32.10
2023-02-11T21:39:42.457Z,34.63
2023-02-11T21:42:28.182Z,31.97
2023-02-11T21:45:13.734Z,31.30
2023-02-11T21:47:59.655Z,33.77
2023-02-11T21:50:47.606Z,31.03
2023-02-11T21:53:33.597Z,32.53
2023-02-11T21:56:19.485Z,28.97
2023-02-11T21:59:05.256Z,32.63
2023-02-11T22:01:50.987Z,33.90
2023-02-11T22:04:36.474Z,31.27
2023-02-11T22:07:22.941Z,28.27
2023-02-11T22:10:09.305Z,28.97
2023-02-11T22:12:55.053Z,31.63
2023-02-11T22:15:40.373Z,28.87
2023-02-11T22:18:26.388Z,26.43
2023-02-11T22:21:17.147Z,31.10
2023-02-11T22:24:02.368Z,33.27
2023-02-11T22:26:47.993Z,34.63
2023-02-11T22:29:33.277Z,31.17
2023-02-11T22:32:18.827Z,34.20
2023-02-11T22:35:04.500Z,32.87
2023-02-11T22:37:49.877Z,32.07
2023-02-11T22:40:35.377Z,33.23
2023-02-11T22:43:21.067Z,29.43
2023-02-11T22:46:07.957Z,31.03
2023-02-11T22:48:53.588Z,31.77
2023-02-11T22:51:39.486Z,29.27
2023-02-11T22:54:25.096Z,30.07
2023-02-11T22:57:10.601Z,28.00
2023-02-11T22:59:56.091Z,30.33
2023-02-11T23:02:41.827Z,30.73
2023-02-11T23:05:27.410Z,30.67
2023-02-11T23:08:13.214Z,32.70
2023-02-11T23:11:11.297Z,30.37
2023-02-11T23:13:57.362Z,32.43
2023-02-11T23:16:43.380Z,30.43
2023-02-11T23:19:28.744Z,32.37
2023-02-11T23:22:14.319Z,32.03
2023-02-11T23:24:59.744Z,32.07
2023-02-11T23:27:45.293Z,29.83
2023-02-11T23:30:30.656Z,31.43
2023-02-11T23:33:16.149Z,33.67
2023-02-11T23:36:01.871Z,33.77
2023-02-11T23:38:48.161Z,29.13
2023-02-11T23:41:33.558Z,28.67
2023-02-11T23:44:18.970Z,28.97
2023-02-11T23:47:04.764Z,30.80
2023-02-11T23:49:50.328Z,29.60
2023-02-11T23:52:36.200Z,30.63
2023-02-11T23:55:21.837Z,29.00
2023-02-11T23:58:07.710Z,29.90
